الصفحة الرئيسية
METAR-TAF:

METAR-TAF

مطار :

لواندا, أنغولا

دائرة عرض: 08-51S, خط طول: 013-14E, ارتفاع: 74 متر

مراقبة الطقس الحالي

تاريخ ووقت الإصدار 1ساعة و 53 دقيقة قبل الساعة 08:00UTC
ريح 5 عقدة من الجنوب
درجة الحرارة 28°درجة مئوية
الرطوبة 70%
ضغط 1015 hPa
الرؤية 10 كم أو أكثر
غيوم متفرقة على ارتفاع 2000 قدم
غيوم متفرقة على ارتفاع 7000 قدم

METAR: FNLU 140800Z 17005KT 9999 SCT020 SCT070 28/22 Q1015 NOSIG

زمن: 10:53 (09:53 UTC)

توقعات

تاريخ ووقت الإصدار 4ساعات و 53 دقيقة قبل الساعة 05:00UTC
التوقعات صالحة من14 الساعة 06 UTC إلى 15 الساعة 12 UTC
ريح 5 عقدة من الجنوب الشرقي
الرؤية: 8000 متر
غيوم متفرقة على ارتفاع 2000 قدم
غيوم مفككة على ارتفاع 5000 قدم
أصبح
من 14 الساعة 09 UTC إلى 14 الساعة 12 UTC
ريح 8 عقدة من الجنوب الغربي
الرؤية 10 كم أو أكثر
غيوم متفرقة على ارتفاع 2300 قدم
مؤقت
من 14 الساعة 13 UTC إلى 14 الساعة 20 UTC
ريح 10 عقدة من الغرب
غيوم قليلة على ارتفاع 2000 قدم

TAF: FNLU 140500Z 1406/1512 14005KT 8000 SCT020 BKN050 BECMG 1409/1412 23008KT 9999 SCT023 TEMPO 1413/1420 28010KT FEW020

أرصاد الطقس والتوقعات من أكثر من 4000 مطار (تقارير الطقس للمطار METAR والتنبؤ بالطقس بالمطارTAF).

المحطات المتاحة هي النقط الصفراء والحمراء على الخريطة.

حرك المؤشر فوق النقطة لمعرفة اسم المحطة.

ثم انقر لمعرفة أرصاد وتوقعات الطقس.

لتغيير الخارطة: اضغط على الأزرار الخضراء مع رمز الصليب الأسود للتكبير. على الزر الأخضر مع شرطة للتصغير، أو على الأسهم الخضراء للخرائط المجاورة.


METAR-TAF: